Hlavní strana
METAR-TAF:

METAR-TAF

Letiště :

Farmington Regional Airport

Farmington, Missouri, Spojené státy americké

zeměpisná šířka: 37-46N, zeměpisná délka: 090-26W, výška: 288 m

Aktuální stav počasí

Zpráva byla vytvořena před 42 minutami, v 09:56 UTC
Jihojihovýchodní vítr 4 kt
Teplota 1°C
Vlhkost vzduchu 93%
Tlak 1010 hPa
Viditelnost: 0.8 km
Zataženo ve výšce 300 ft
mlha

METAR: KFAM 240956Z AUTO 16004KT 1/2SM FG OVC003 01/00 A2982 RMK AO2 SLP117 T00060000 FZRANO

Čas: 04:38 (10:38 UTC)


TAF: chybějící

Stav a předpovědi počasí z více než 4 000 letišť (zprávy METAR a TAF).

Červené a žluté tečky na mapě představují dostupné meteorologické stanice.

Když kurzor umístíte na tečku, zobrazí se název stanice.

Pak kliknutím zobrazíte stav a předpověď počasí.

Chcete-li změnit mapu, kliknutím na zelené tlačítko se znaménkem +mapu přiblížíte, kliknutím na zelené tlačítko se znaménkem – mapu oddálíte a kliknutím na zelené šipky přejdete na sousední mapy.


METAR-TAF: